createdAt,value
2022-09-13T00:01:05.016Z,11.10
2022-09-13T00:03:33.129Z,11.10
2022-09-13T00:06:12.031Z,11.10
2022-09-13T00:08:40.258Z,11.10
2022-09-13T00:11:14.256Z,11.00
2022-09-13T00:13:41.655Z,11.10
2022-09-13T00:16:13.375Z,11.10
2022-09-13T00:18:41.411Z,11.10
2022-09-13T00:21:12.112Z,11.10
2022-09-13T00:23:41.609Z,11.10
2022-09-13T00:26:15.243Z,11.10
2022-09-13T00:28:43.283Z,11.10
2022-09-13T00:31:10.767Z,11.10
2022-09-13T00:33:38.924Z,11.00
2022-09-13T00:36:10.436Z,11.00
2022-09-13T00:38:39.643Z,11.00
2022-09-13T00:41:11.267Z,11.10
2022-09-13T00:43:52.534Z,11.10
2022-09-13T00:46:40.346Z,11.00
2022-09-13T00:49:29.238Z,11.00
2022-09-13T00:52:00.320Z,11.10
2022-09-13T00:54:33.168Z,11.00
2022-09-13T00:57:03.113Z,11.00
2022-09-13T01:00:03.622Z,11.00
2022-09-13T01:02:31.754Z,11.00
2022-09-13T01:04:59.265Z,11.00
2022-09-13T01:07:27.009Z,10.90
2022-09-13T01:09:54.749Z,10.90
2022-09-13T01:12:45.575Z,11.00
2022-09-13T01:15:12.941Z,11.00
2022-09-13T01:17:40.632Z,11.00
2022-09-13T01:20:11.142Z,11.00
2022-09-13T01:23:15.584Z,11.00
2022-09-13T01:26:12.379Z,11.00
2022-09-13T01:28:48.529Z,11.00
2022-09-13T01:31:30.779Z,11.00
2022-09-13T01:34:16.786Z,11.00
2022-09-13T01:36:52.953Z,11.00
2022-09-13T01:39:39.379Z,11.00
2022-09-13T01:42:21.543Z,11.00
2022-09-13T01:45:07.110Z,11.00
2022-09-13T01:47:51.027Z,11.00
2022-09-13T01:50:43.156Z,11.00
2022-09-13T01:53:34.703Z,11.00
2022-09-13T01:56:09.344Z,11.00
2022-09-13T01:58:51.980Z,11.00
2022-09-13T02:01:30.660Z,11.00
2022-09-13T02:04:06.687Z,11.10
2022-09-13T02:06:57.020Z,11.00
2022-09-13T02:09:28.036Z,11.00
2022-09-13T02:12:02.996Z,11.00
2022-09-13T02:14:41.608Z,11.00
2022-09-13T02:17:24.575Z,11.00
2022-09-13T02:19:52.069Z,11.00
2022-09-13T02:22:25.817Z,11.00
2022-09-13T02:24:59.298Z,11.00
2022-09-13T02:27:32.586Z,11.10
2022-09-13T02:30:07.229Z,11.10
2022-09-13T02:32:52.826Z,11.10
2022-09-13T02:35:21.527Z,11.10
2022-09-13T02:37:58.469Z,11.00
2022-09-13T02:40:30.623Z,11.00
2022-09-13T02:43:16.728Z,10.90
2022-09-13T02:46:01.255Z,11.00
2022-09-13T02:49:08.404Z,11.00
2022-09-13T02:52:01.909Z,11.00
2022-09-13T02:54:42.576Z,10.90
2022-09-13T02:57:27.659Z,10.90
2022-09-13T02:59:55.101Z,10.90
2022-09-13T03:02:26.272Z,10.90
2022-09-13T03:04:54.054Z,10.80
2022-09-13T03:07:21.338Z,10.80
2022-09-13T03:09:53.753Z,10.80
2022-09-13T03:12:30.066Z,10.80
2022-09-13T03:15:02.277Z,10.70
2022-09-13T03:18:01.024Z,10.80
2022-09-13T03:20:40.047Z,10.80
2022-09-13T03:23:34.648Z,10.70
2022-09-13T03:26:04.738Z,10.70
2022-09-13T03:28:48.055Z,10.80
2022-09-13T03:31:34.128Z,10.70
2022-09-13T03:34:13.491Z,10.70
2022-09-13T03:37:30.867Z,10.80
2022-09-13T03:40:05.769Z,10.80
2022-09-13T03:42:49.563Z,10.90
2022-09-13T03:45:19.111Z,10.90
2022-09-13T03:47:49.279Z,10.70
2022-09-13T03:50:21.214Z,10.60
2022-09-13T03:52:55.068Z,10.60
2022-09-13T03:55:23.008Z,10.60
2022-09-13T03:57:50.417Z,10.60
2022-09-13T04:00:18.790Z,10.60
2022-09-13T04:02:46.264Z,10.60
2022-09-13T04:05:13.792Z,10.60
2022-09-13T04:07:41.139Z,10.50
2022-09-13T04:10:13.081Z,10.60
2022-09-13T04:12:41.533Z,10.70
2022-09-13T04:15:10.486Z,10.70
2022-09-13T04:17:37.904Z,10.70
2022-09-13T04:20:06.248Z,10.70
2022-09-13T04:22:33.789Z,10.70
2022-09-13T04:25:02.622Z,10.70
2022-09-13T04:27:30.118Z,10.70
2022-09-13T04:29:57.441Z,10.70
2022-09-13T04:32:24.910Z,10.70
2022-09-13T04:34:52.193Z,10.70
2022-09-13T04:37:19.617Z,10.70
2022-09-13T04:39:47.172Z,10.70
2022-09-13T04:42:14.736Z,10.70
2022-09-13T04:44:42.144Z,10.60
2022-09-13T04:47:09.517Z,10.60
2022-09-13T04:49:36.897Z,10.60
2022-09-13T04:52:04.395Z,10.70
2022-09-13T04:54:31.609Z,10.60
2022-09-13T04:56:58.993Z,10.60
2022-09-13T04:59:26.623Z,10.60
2022-09-13T05:01:53.993Z,10.40
2022-09-13T05:04:21.317Z,10.50
2022-09-13T05:06:48.874Z,10.50
2022-09-13T05:09:16.544Z,10.60
2022-09-13T05:11:44.425Z,10.60
2022-09-13T05:14:12.572Z,10.60
2022-09-13T05:16:40.371Z,10.70
2022-09-13T05:19:07.713Z,10.60
2022-09-13T05:21:35.241Z,10.60
2022-09-13T05:24:02.642Z,10.70
2022-09-13T05:26:34.062Z,10.70
2022-09-13T05:29:01.546Z,10.70
2022-09-13T05:31:33.689Z,10.70
2022-09-13T05:34:03.665Z,10.80
2022-09-13T05:36:31.219Z,10.70
2022-09-13T05:39:25.976Z,10.70
2022-09-13T05:41:46.481Z,10.70
2022-09-13T05:44:18.387Z,10.70
2022-09-13T05:46:49.843Z,10.80
2022-09-13T05:49:19.100Z,10.80
2022-09-13T05:51:46.807Z,10.80
2022-09-13T05:54:14.290Z,10.80
2022-09-13T05:56:41.578Z,10.90
2022-09-13T05:59:13.710Z,10.90
2022-09-13T06:01:41.238Z,10.90
2022-09-13T06:04:08.589Z,10.90
2022-09-13T06:06:36.241Z,10.80
2022-09-13T06:09:03.881Z,10.80
2022-09-13T06:11:32.247Z,10.90
2022-09-13T06:13:59.560Z,10.90
2022-09-13T06:16:26.946Z,11.00
2022-09-13T06:18:54.255Z,11.10
2022-09-13T06:21:28.300Z,11.40
2022-09-13T06:23:56.831Z,11.20
2022-09-13T06:26:26.693Z,11.20
2022-09-13T06:28:56.547Z,11.20
2022-09-13T06:31:26.357Z,11.30
2022-09-13T06:33:59.265Z,11.50
2022-09-13T06:36:27.074Z,11.60
2022-09-13T06:38:54.624Z,11.80
2022-09-13T06:41:24.874Z,11.80
2022-09-13T06:43:58.847Z,12.00
2022-09-13T06:46:28.645Z,12.10
2022-09-13T06:48:59.216Z,12.20
2022-09-13T06:51:27.277Z,12.20
2022-09-13T06:53:56.940Z,12.30
2022-09-13T06:56:27.220Z,12.30
2022-09-13T06:58:59.793Z,12.70
2022-09-13T07:01:32.656Z,12.70
2022-09-13T07:04:05.918Z,12.50
2022-09-13T07:06:35.777Z,12.40
2022-09-13T07:09:04.905Z,12.30
2022-09-13T07:11:35.729Z,12.20
2022-09-13T07:14:03.984Z,12.30
2022-09-13T07:16:34.008Z,12.50
2022-09-13T07:19:05.905Z,12.60
2022-09-13T07:21:34.659Z,12.60
2022-09-13T07:24:02.159Z,12.90
2022-09-13T07:26:29.717Z,13.20
2022-09-13T07:28:59.574Z,13.10
2022-09-13T07:31:30.569Z,13.20
2022-09-13T07:34:00.710Z,13.30
2022-09-13T07:36:30.277Z,13.20
2022-09-13T07:38:58.450Z,13.40
2022-09-13T07:41:28.012Z,13.40
2022-09-13T07:43:56.209Z,13.60
2022-09-13T07:46:26.275Z,13.70
2022-09-13T07:48:56.129Z,13.50
2022-09-13T07:51:26.010Z,13.40
2022-09-13T07:53:57.722Z,13.40
2022-09-13T07:56:30.933Z,13.20
2022-09-13T07:59:01.088Z,12.90
2022-09-13T08:01:40.064Z,12.90
2022-09-13T08:04:17.928Z,12.90
2022-09-13T08:06:46.618Z,12.70
2022-09-13T08:09:14.829Z,12.80
2022-09-13T08:11:44.647Z,12.60
2022-09-13T08:14:14.138Z,12.60
2022-09-13T08:16:41.677Z,12.50
2022-09-13T08:19:12.614Z,12.50
2022-09-13T08:21:42.104Z,12.40
2022-09-13T08:24:15.048Z,12.40
2022-09-13T08:26:42.287Z,12.40
2022-09-13T08:29:09.495Z,12.50
2022-09-13T08:31:37.023Z,12.50
2022-09-13T08:34:04.343Z,12.50
2022-09-13T08:36:31.654Z,12.70
2022-09-13T08:39:00.526Z,12.70
2022-09-13T08:41:45.473Z,12.90
2022-09-13T08:44:19.085Z,13.10
2022-09-13T08:46:47.198Z,13.20
2022-09-13T08:49:26.660Z,13.40
2022-09-13T08:51:58.847Z,13.50
2022-09-13T08:54:26.754Z,13.50
2022-09-13T08:57:11.849Z,13.30
2022-09-13T08:59:53.237Z,13.10
2022-09-13T09:02:28.012Z,12.90
2022-09-13T09:04:58.011Z,12.90
2022-09-13T09:07:29.444Z,12.90
2022-09-13T09:09:59.668Z,13.10
2022-09-13T09:12:44.867Z,13.10
2022-09-13T09:15:17.674Z,13.20
2022-09-13T09:18:03.383Z,13.30
2022-09-13T09:20:50.149Z,13.30
2022-09-13T09:23:27.208Z,13.10
2022-09-13T09:26:00.887Z,13.00
2022-09-13T09:28:31.664Z,13.00
2022-09-13T09:31:08.965Z,12.90
2022-09-13T09:34:01.509Z,12.80
2022-09-13T09:36:34.904Z,12.90
2022-09-13T09:39:05.477Z,12.90
2022-09-13T09:41:35.370Z,13.00
2022-09-13T09:44:17.396Z,12.90
2022-09-13T09:46:55.657Z,13.00
2022-09-13T09:50:02.672Z,13.20
2022-09-13T09:52:40.246Z,13.20
2022-09-13T09:55:30.936Z,13.30
2022-09-13T09:58:08.375Z,13.40
2022-09-13T10:00:51.454Z,13.50
2022-09-13T10:03:21.932Z,13.50
2022-09-13T10:05:49.617Z,13.50
2022-09-13T10:08:43.989Z,13.50
2022-09-13T10:11:12.361Z,13.50
2022-09-13T10:13:58.159Z,13.50
2022-09-13T10:16:28.251Z,13.40
2022-09-13T10:19:16.047Z,13.40
2022-09-13T10:21:43.495Z,13.40
2022-09-13T10:24:19.294Z,13.40
2022-09-13T10:26:47.071Z,13.40
2022-09-13T10:29:17.879Z,13.40
2022-09-13T10:31:50.254Z,13.40
2022-09-13T10:34:26.578Z,13.40
2022-09-13T10:37:15.168Z,13.50
2022-09-13T10:40:03.801Z,13.70
2022-09-13T10:42:31.723Z,13.50
2022-09-13T10:45:08.114Z,13.70
2022-09-13T10:47:44.895Z,14.00
2022-09-13T10:50:33.780Z,14.00
2022-09-13T10:53:03.365Z,14.20
2022-09-13T10:55:37.199Z,14.40
2022-09-13T10:58:07.858Z,14.30
2022-09-13T11:00:50.075Z,14.60
2022-09-13T11:03:29.655Z,14.30
2022-09-13T11:06:09.057Z,14.30
2022-09-13T11:08:54.523Z,14.40
2022-09-13T11:11:46.841Z,14.50
2022-09-13T11:14:41.643Z,14.50
2022-09-13T11:17:44.292Z,14.50
2022-09-13T11:20:45.682Z,14.40
2022-09-13T11:23:40.134Z,14.30
2022-09-13T11:26:38.288Z,14.50
2022-09-13T11:29:32.787Z,14.50
2022-09-13T11:32:22.017Z,14.50
2022-09-13T11:34:58.163Z,14.70
2022-09-13T11:37:37.863Z,14.90
2022-09-13T11:40:17.587Z,14.90
2022-09-13T11:42:48.006Z,14.70
2022-09-13T11:45:57.087Z,14.80
2022-09-13T11:48:30.540Z,14.50
2022-09-13T11:51:03.048Z,14.50
2022-09-13T11:53:50.465Z,14.40
2022-09-13T11:56:34.710Z,14.30
2022-09-13T11:59:17.984Z,14.20
2022-09-13T12:01:57.384Z,14.10
2022-09-13T12:04:37.874Z,14.00
2022-09-13T12:07:14.554Z,14.10
2022-09-13T12:09:57.894Z,14.20
2022-09-13T12:12:30.327Z,14.40
2022-09-13T12:15:14.078Z,14.40
2022-09-13T12:17:45.753Z,14.40
2022-09-13T12:20:30.716Z,14.30
2022-09-13T12:23:02.312Z,14.30
2022-09-13T12:25:44.903Z,14.20
2022-09-13T12:28:43.507Z,14.30
2022-09-13T12:31:16.688Z,14.40
2022-09-13T12:33:45.529Z,14.50
2022-09-13T12:36:12.796Z,14.50
2022-09-13T12:38:42.984Z,14.50
2022-09-13T12:41:41.686Z,14.90
2022-09-13T12:44:46.021Z,15.20
2022-09-13T12:47:16.225Z,15.10
2022-09-13T12:53:10.029Z,15.30
2022-09-13T12:55:56.290Z,15.10
2022-09-13T12:58:38.402Z,15.00
2022-09-13T13:01:18.490Z,14.70
2022-09-13T13:04:02.274Z,14.40
2022-09-13T13:06:37.346Z,14.40
2022-09-13T13:09:48.302Z,14.40
2022-09-13T13:12:40.883Z,14.40
2022-09-13T13:15:31.187Z,14.30
2022-09-13T13:18:19.264Z,14.40
2022-09-13T13:20:54.776Z,14.60
2022-09-13T13:23:35.472Z,14.90
2022-09-13T13:26:33.274Z,14.80
2022-09-13T13:29:03.868Z,14.90
2022-09-13T13:31:31.139Z,14.90
2022-09-13T13:34:10.156Z,15.00
2022-09-13T13:36:40.822Z,14.80
2022-09-13T13:39:23.264Z,15.00
2022-09-13T13:42:20.717Z,14.90
2022-09-13T13:44:48.023Z,14.90
2022-09-13T13:47:15.378Z,14.70
2022-09-13T13:50:17.488Z,14.50
2022-09-13T13:52:47.960Z,14.50
2022-09-13T13:55:43.980Z,14.60
2022-09-13T13:58:26.511Z,14.50
2022-09-13T14:00:56.007Z,14.40
2022-09-13T14:03:29.426Z,14.30
2022-09-13T14:05:57.004Z,14.30
2022-09-13T14:08:53.068Z,14.10
2022-09-13T14:11:52.206Z,14.10
2022-09-13T14:14:34.616Z,14.00
2022-09-13T14:17:33.823Z,14.00
2022-09-13T14:20:26.851Z,13.90
2022-09-13T14:23:13.446Z,13.90
2022-09-13T14:25:40.865Z,14.00
2022-09-13T14:28:08.247Z,14.00
2022-09-13T14:30:37.994Z,13.90
2022-09-13T14:33:06.256Z,13.90
2022-09-13T14:35:40.598Z,13.90
2022-09-13T14:38:16.845Z,13.90
2022-09-13T14:40:51.848Z,13.90
2022-09-13T14:43:24.953Z,13.80
2022-09-13T14:46:18.111Z,13.80
2022-09-13T14:48:57.358Z,13.80
2022-09-13T14:51:30.441Z,13.80
2022-09-13T14:54:07.563Z,13.80
2022-09-13T14:56:52.391Z,13.80
2022-09-13T14:59:35.970Z,13.80
2022-09-13T15:02:18.068Z,13.70
2022-09-13T15:04:54.677Z,13.70
2022-09-13T15:07:31.055Z,13.70
2022-09-13T15:10:19.582Z,13.60
2022-09-13T15:12:58.879Z,13.50
2022-09-13T15:15:36.863Z,13.50
2022-09-13T15:18:25.940Z,13.50
2022-09-13T15:20:56.219Z,13.60
2022-09-13T15:23:28.298Z,13.60
2022-09-13T15:26:01.637Z,13.60
2022-09-13T15:28:33.102Z,13.60
2022-09-13T15:31:02.302Z,13.50
2022-09-13T15:33:31.867Z,13.40
2022-09-13T15:36:21.105Z,13.30
2022-09-13T15:39:04.704Z,13.40
2022-09-13T15:41:36.395Z,13.20
2022-09-13T15:44:09.590Z,13.30
2022-09-13T15:46:59.866Z,13.20
2022-09-13T15:49:29.030Z,13.20
2022-09-13T15:52:01.675Z,13.30
2022-09-13T15:54:41.172Z,13.20
2022-09-13T15:57:13.965Z,13.20
2022-09-13T15:59:42.052Z,13.20
2022-09-13T16:02:25.823Z,13.30
2022-09-13T16:04:54.013Z,13.20
2022-09-13T16:07:22.182Z,13.20
2022-09-13T16:09:50.022Z,13.20
2022-09-13T16:12:19.145Z,13.10
2022-09-13T16:14:47.797Z,13.10
2022-09-13T16:17:23.276Z,13.00
2022-09-13T16:19:50.662Z,13.00
2022-09-13T16:22:17.873Z,13.00
2022-09-13T16:24:45.393Z,13.00
2022-09-13T16:27:17.614Z,12.90
2022-09-13T16:29:46.136Z,12.90
2022-09-13T16:32:13.390Z,12.90
2022-09-13T16:34:40.826Z,12.90
2022-09-13T16:37:08.274Z,12.80
2022-09-13T16:39:35.645Z,12.80
2022-09-13T16:42:05.013Z,12.80
2022-09-13T16:44:32.424Z,12.80
2022-09-13T16:46:59.719Z,12.80
2022-09-13T16:49:27.500Z,12.80
2022-09-13T16:51:54.823Z,12.70
2022-09-13T16:54:22.255Z,12.70
2022-09-13T16:56:50.659Z,12.70
2022-09-13T16:59:18.146Z,12.60
2022-09-13T17:01:45.460Z,12.60
2022-09-13T17:04:12.962Z,12.60
2022-09-13T17:06:40.584Z,12.60
2022-09-13T17:09:08.699Z,12.50
2022-09-13T17:11:39.455Z,12.50
2022-09-13T17:14:08.677Z,12.50
2022-09-13T17:16:47.708Z,12.40
2022-09-13T17:19:19.113Z,12.40
2022-09-13T17:21:46.849Z,12.40
2022-09-13T17:24:14.534Z,12.40
2022-09-13T17:26:46.848Z,12.40
2022-09-13T17:29:15.342Z,12.40
2022-09-13T17:31:43.717Z,12.40
2022-09-13T17:34:13.144Z,12.40
2022-09-13T17:36:43.649Z,12.60
2022-09-13T17:39:11.867Z,12.30
2022-09-13T17:41:39.318Z,12.30
2022-09-13T17:44:06.787Z,12.30
2022-09-13T17:46:34.235Z,12.30
2022-09-13T17:49:01.884Z,12.30
2022-09-13T17:51:31.239Z,12.30
2022-09-13T17:54:00.737Z,12.30
2022-09-13T17:56:34.348Z,12.30
2022-09-13T17:59:15.846Z,12.30
2022-09-13T18:01:48.674Z,12.30
2022-09-13T18:04:18.113Z,12.20
2022-09-13T18:06:46.029Z,12.20
2022-09-13T18:09:15.087Z,12.20
2022-09-13T18:11:43.006Z,12.20
2022-09-13T18:14:15.326Z,12.20
2022-09-13T18:16:43.967Z,12.20
2022-09-13T18:19:11.817Z,12.20
2022-09-13T18:21:39.284Z,12.20
2022-09-13T18:24:07.528Z,12.20
2022-09-13T18:26:35.028Z,12.10
2022-09-13T18:29:05.682Z,12.20
2022-09-13T18:31:35.282Z,12.20
2022-09-13T18:34:08.181Z,12.20
2022-09-13T18:36:36.578Z,12.20
2022-09-13T18:39:05.685Z,12.20
2022-09-13T18:41:37.967Z,12.10
2022-09-13T18:44:05.283Z,12.10
2022-09-13T18:46:34.525Z,12.10
2022-09-13T18:49:03.363Z,12.10
2022-09-13T18:51:36.326Z,12.10
2022-09-13T18:54:05.131Z,12.10
2022-09-13T18:56:35.949Z,12.10
2022-09-13T18:59:05.961Z,12.10
2022-09-13T19:01:36.442Z,12.10
2022-09-13T19:04:07.570Z,12.10
2022-09-13T19:06:48.880Z,12.10
2022-09-13T19:09:17.185Z,12.10
2022-09-13T19:11:47.809Z,12.10
2022-09-13T19:14:23.316Z,12.10
2022-09-13T19:16:52.214Z,12.10
2022-09-13T19:19:20.030Z,12.00
2022-09-13T19:21:47.776Z,12.00
2022-09-13T19:24:19.404Z,12.10
2022-09-13T19:26:51.479Z,12.00
2022-09-13T19:29:21.420Z,12.00
2022-09-13T19:31:49.893Z,12.00
2022-09-13T19:34:22.347Z,12.00
2022-09-13T19:36:54.505Z,12.00
2022-09-13T19:39:24.762Z,12.00
2022-09-13T19:41:56.048Z,12.00
2022-09-13T19:44:23.365Z,12.00
2022-09-13T19:47:06.855Z,11.90
2022-09-13T19:49:35.252Z,11.90
2022-09-13T19:52:03.086Z,11.90
2022-09-13T19:54:30.551Z,11.80
2022-09-13T19:56:57.856Z,11.80
2022-09-13T19:59:25.544Z,11.80
2022-09-13T20:01:53.194Z,11.90
2022-09-13T20:04:21.858Z,11.90
2022-09-13T20:06:52.032Z,11.80
2022-09-13T20:09:21.040Z,11.80
2022-09-13T20:11:49.100Z,11.80
2022-09-13T20:14:20.572Z,11.80
2022-09-13T20:16:48.742Z,11.90
2022-09-13T20:22:09.022Z,11.80
2022-09-13T20:24:36.554Z,11.80
2022-09-13T20:27:04.277Z,11.80
2022-09-13T20:29:31.927Z,11.80
2022-09-13T20:32:00.035Z,11.90
2022-09-13T20:34:28.157Z,11.80
2022-09-13T20:36:55.524Z,11.80
2022-09-13T20:39:22.885Z,11.80
2022-09-13T20:41:50.509Z,11.80
2022-09-13T20:44:18.544Z,11.80
2022-09-13T20:46:45.991Z,11.80
2022-09-13T20:49:13.373Z,11.80
2022-09-13T20:51:40.954Z,11.80
2022-09-13T20:54:08.504Z,11.70
2022-09-13T20:56:36.336Z,11.70
2022-09-13T20:59:04.640Z,11.80
2022-09-13T21:01:33.318Z,11.80
2022-09-13T21:04:01.365Z,11.80
2022-09-13T21:06:31.011Z,11.70
2022-09-13T21:09:00.384Z,11.70
2022-09-13T21:11:35.205Z,11.80
2022-09-13T21:14:08.669Z,11.70
2022-09-13T21:16:41.426Z,11.70
2022-09-13T21:19:09.395Z,11.70
2022-09-13T21:21:39.241Z,11.70
2022-09-13T21:24:10.002Z,11.70
2022-09-13T21:26:39.876Z,11.70
2022-09-13T21:29:07.225Z,11.70
2022-09-13T21:31:35.097Z,11.80
2022-09-13T21:34:15.196Z,11.70
2022-09-13T21:36:44.153Z,11.70
2022-09-13T21:39:12.713Z,11.70
2022-09-13T21:41:40.449Z,11.70
2022-09-13T21:44:08.113Z,11.70
2022-09-13T21:46:36.872Z,11.70
2022-09-13T21:49:06.878Z,11.70
2022-09-13T21:51:39.599Z,11.70
2022-09-13T21:54:09.581Z,11.70
2022-09-13T21:56:40.019Z,11.70
2022-09-13T21:59:14.799Z,11.70
2022-09-13T22:01:44.341Z,11.70
2022-09-13T22:04:17.221Z,11.70
2022-09-13T22:06:45.979Z,11.70
2022-09-13T22:09:14.694Z,11.70
2022-09-13T22:11:44.943Z,11.70
2022-09-13T22:14:14.628Z,11.60
2022-09-13T22:16:43.738Z,11.50
2022-09-13T22:19:14.402Z,11.40
2022-09-13T22:21:44.867Z,11.40
2022-09-13T22:24:18.326Z,11.30
2022-09-13T22:26:46.574Z,11.30
2022-09-13T22:29:15.466Z,11.20
2022-09-13T22:31:45.500Z,11.20
2022-09-13T22:34:15.687Z,11.10
2022-09-13T22:36:43.711Z,11.10
2022-09-13T22:39:12.925Z,11.00
2022-09-13T22:41:41.289Z,11.00
2022-09-13T22:44:09.119Z,11.00
2022-09-13T22:46:41.808Z,11.00
2022-09-13T22:49:13.015Z,11.00
2022-09-13T22:51:40.663Z,11.00
2022-09-13T22:54:08.944Z,11.00
2022-09-13T22:56:37.922Z,11.00
2022-09-13T22:59:09.206Z,11.00
2022-09-13T23:01:38.202Z,11.00
2022-09-13T23:04:06.877Z,11.00
2022-09-13T23:06:35.569Z,11.00
2022-09-13T23:09:05.767Z,11.00
2022-09-13T23:11:36.050Z,11.00
2022-09-13T23:14:06.683Z,11.00
2022-09-13T23:16:44.138Z,11.00
2022-09-13T23:19:13.483Z,11.00
2022-09-13T23:21:41.721Z,11.00
2022-09-13T23:24:15.403Z,11.00
2022-09-13T23:26:44.120Z,11.00
2022-09-13T23:29:19.740Z,11.00
2022-09-13T23:31:48.232Z,11.00
2022-09-13T23:34:17.834Z,11.10
2022-09-13T23:36:46.586Z,11.10
2022-09-13T23:39:16.869Z,11.10
2022-09-13T23:41:46.110Z,11.10
2022-09-13T23:44:13.940Z,11.10
2022-09-13T23:46:41.914Z,11.10
2022-09-13T23:49:09.289Z,11.10
2022-09-13T23:51:37.023Z,11.10
2022-09-13T23:54:04.909Z,11.10
2022-09-13T23:56:33.655Z,11.10
2022-09-13T23:59:02.594Z,11.10
